sensor_id;sensor_type;location;lat;lon;timestamp;P1;durP1;ratioP1;P2;durP2;ratioP2
38226;SDS011;24026;49.446;8.576;2023-03-30T00:01:47;128.52;;;115.20;;
38226;SDS011;24026;49.446;8.576;2023-03-30T00:04:08;130.35;;;116.88;;
38226;SDS011;24026;49.446;8.576;2023-03-30T00:06:30;130.15;;;116.80;;
38226;SDS011;24026;49.446;8.576;2023-03-30T00:08:51;129.68;;;116.18;;
38226;SDS011;24026;49.446;8.576;2023-03-30T00:11:16;130.70;;;117.03;;
38226;SDS011;24026;49.446;8.576;2023-03-30T00:13:36;129.73;;;116.38;;
38226;SDS011;24026;49.446;8.576;2023-03-30T00:15:57;130.30;;;116.90;;
38226;SDS011;24026;49.446;8.576;2023-03-30T00:18:18;130.65;;;117.20;;
38226;SDS011;24026;49.446;8.576;2023-03-30T00:20:39;129.60;;;116.20;;
38226;SDS011;24026;49.446;8.576;2023-03-30T00:23:01;129.57;;;116.22;;
38226;SDS011;24026;49.446;8.576;2023-03-30T00:25:22;130.43;;;116.93;;
38226;SDS011;24026;49.446;8.576;2023-03-30T00:27:42;129.48;;;116.00;;
38226;SDS011;24026;49.446;8.576;2023-03-30T00:30:04;129.55;;;116.13;;
38226;SDS011;24026;49.446;8.576;2023-03-30T00:32:26;129.75;;;116.32;;
38226;SDS011;24026;49.446;8.576;2023-03-30T00:34:47;129.55;;;116.15;;
38226;SDS011;24026;49.446;8.576;2023-03-30T00:37:07;130.52;;;117.13;;
38226;SDS011;24026;49.446;8.576;2023-03-30T00:39:28;131.20;;;117.75;;
38226;SDS011;24026;49.446;8.576;2023-03-30T00:41:48;129.25;;;115.95;;
38226;SDS011;24026;49.446;8.576;2023-03-30T00:47:07;129.27;;;115.88;;
38226;SDS011;24026;49.446;8.576;2023-03-30T00:49:28;130.48;;;116.97;;
38226;SDS011;24026;49.446;8.576;2023-03-30T00:51:50;129.38;;;115.78;;
38226;SDS011;24026;49.446;8.576;2023-03-30T00:54:12;130.50;;;117.00;;
38226;SDS011;24026;49.446;8.576;2023-03-30T00:56:35;129.90;;;116.40;;
38226;SDS011;24026;49.446;8.576;2023-03-30T00:58:56;129.13;;;115.85;;
38226;SDS011;24026;49.446;8.576;2023-03-30T01:01:17;129.38;;;116.00;;
38226;SDS011;24026;49.446;8.576;2023-03-30T01:03:45;128.90;;;115.50;;
38226;SDS011;24026;49.446;8.576;2023-03-30T01:06:06;129.10;;;115.68;;
38226;SDS011;24026;49.446;8.576;2023-03-30T01:08:27;129.63;;;116.28;;
38226;SDS011;24026;49.446;8.576;2023-03-30T01:10:51;129.50;;;116.18;;
38226;SDS011;24026;49.446;8.576;2023-03-30T01:13:12;129.02;;;115.65;;
38226;SDS011;24026;49.446;8.576;2023-03-30T01:15:34;130.35;;;116.65;;
38226;SDS011;24026;49.446;8.576;2023-03-30T01:23:59;127.07;;;113.88;;
38226;SDS011;24026;49.446;8.576;2023-03-30T01:26:54;126.83;;;113.53;;
38226;SDS011;24026;49.446;8.576;2023-03-30T01:34:38;130.00;;;116.32;;
38226;SDS011;24026;49.446;8.576;2023-03-30T01:47:41;128.00;;;114.53;;
38226;SDS011;24026;49.446;8.576;2023-03-30T01:50:11;127.70;;;114.35;;
38226;SDS011;24026;49.446;8.576;2023-03-30T01:55:13;128.45;;;114.93;;
38226;SDS011;24026;49.446;8.576;2023-03-30T01:57:42;129.40;;;115.97;;
38226;SDS011;24026;49.446;8.576;2023-03-30T02:00:14;128.23;;;114.90;;
38226;SDS011;24026;49.446;8.576;2023-03-30T02:02:42;129.88;;;116.35;;
38226;SDS011;24026;49.446;8.576;2023-03-30T02:05:07;129.07;;;115.70;;
38226;SDS011;24026;49.446;8.576;2023-03-30T02:07:30;129.48;;;116.05;;
38226;SDS011;24026;49.446;8.576;2023-03-30T02:09:53;128.05;;;114.70;;
38226;SDS011;24026;49.446;8.576;2023-03-30T02:12:17;127.97;;;114.72;;
38226;SDS011;24026;49.446;8.576;2023-03-30T02:14:39;128.38;;;115.18;;
38226;SDS011;24026;49.446;8.576;2023-03-30T02:17:17;128.70;;;115.28;;
38226;SDS011;24026;49.446;8.576;2023-03-30T02:19:44;128.45;;;115.10;;
38226;SDS011;24026;49.446;8.576;2023-03-30T02:22:05;129.15;;;115.75;;
38226;SDS011;24026;49.446;8.576;2023-03-30T02:24:27;130.00;;;116.60;;
38226;SDS011;24026;49.446;8.576;2023-03-30T02:26:50;128.85;;;115.45;;
38226;SDS011;24026;49.446;8.576;2023-03-30T02:29:13;128.40;;;115.13;;
38226;SDS011;24026;49.446;8.576;2023-03-30T02:31:34;129.60;;;116.05;;
38226;SDS011;24026;49.446;8.576;2023-03-30T02:39:33;128.85;;;115.43;;
38226;SDS011;24026;49.446;8.576;2023-03-30T02:45:32;126.07;;;112.85;;
38226;SDS011;24026;49.446;8.576;2023-03-30T02:53:42;126.43;;;113.05;;
38226;SDS011;24026;49.446;8.576;2023-03-30T02:59:31;127.25;;;113.95;;
38226;SDS011;24026;49.446;8.576;2023-03-30T03:04:23;128.13;;;114.80;;
38226;SDS011;24026;49.446;8.576;2023-03-30T03:06:47;128.50;;;115.10;;
38226;SDS011;24026;49.446;8.576;2023-03-30T03:09:11;128.30;;;114.88;;
38226;SDS011;24026;49.446;8.576;2023-03-30T03:11:32;128.60;;;115.35;;
38226;SDS011;24026;49.446;8.576;2023-03-30T03:13:52;128.13;;;114.90;;
38226;SDS011;24026;49.446;8.576;2023-03-30T03:16:13;127.70;;;114.40;;
38226;SDS011;24026;49.446;8.576;2023-03-30T03:18:33;129.00;;;115.63;;
38226;SDS011;24026;49.446;8.576;2023-03-30T03:20:58;128.77;;;115.38;;
38226;SDS011;24026;49.446;8.576;2023-03-30T03:23:19;128.73;;;115.25;;
38226;SDS011;24026;49.446;8.576;2023-03-30T03:25:40;127.60;;;114.15;;
38226;SDS011;24026;49.446;8.576;2023-03-30T03:28:00;127.43;;;114.10;;
38226;SDS011;24026;49.446;8.576;2023-03-30T03:30:20;129.00;;;115.60;;
38226;SDS011;24026;49.446;8.576;2023-03-30T03:32:41;128.63;;;115.32;;
38226;SDS011;24026;49.446;8.576;2023-03-30T03:35:01;127.53;;;114.25;;
38226;SDS011;24026;49.446;8.576;2023-03-30T03:37:21;126.60;;;113.30;;
38226;SDS011;24026;49.446;8.576;2023-03-30T03:39:42;127.43;;;114.13;;
38226;SDS011;24026;49.446;8.576;2023-03-30T03:42:03;128.43;;;115.07;;
38226;SDS011;24026;49.446;8.576;2023-03-30T03:44:24;127.15;;;113.93;;
38226;SDS011;24026;49.446;8.576;2023-03-30T03:46:44;127.15;;;113.90;;
38226;SDS011;24026;49.446;8.576;2023-03-30T03:49:05;127.55;;;114.15;;
38226;SDS011;24026;49.446;8.576;2023-03-30T03:51:25;128.25;;;114.75;;
38226;SDS011;24026;49.446;8.576;2023-03-30T03:53:48;128.07;;;114.68;;
38226;SDS011;24026;49.446;8.576;2023-03-30T03:56:08;128.07;;;114.78;;
38226;SDS011;24026;49.446;8.576;2023-03-30T03:58:30;127.03;;;113.57;;
38226;SDS011;24026;49.446;8.576;2023-03-30T04:00:51;129.85;;;116.25;;
38226;SDS011;24026;49.446;8.576;2023-03-30T04:03:16;127.15;;;113.82;;
38226;SDS011;24026;49.446;8.576;2023-03-30T04:05:37;128.48;;;115.03;;
38226;SDS011;24026;49.446;8.576;2023-03-30T04:07:58;128.40;;;114.82;;
38226;SDS011;24026;49.446;8.576;2023-03-30T04:10:18;127.47;;;114.25;;
38226;SDS011;24026;49.446;8.576;2023-03-30T04:12:40;127.00;;;113.72;;
38226;SDS011;24026;49.446;8.576;2023-03-30T04:15:01;127.68;;;114.38;;
38226;SDS011;24026;49.446;8.576;2023-03-30T04:17:21;127.95;;;114.70;;
38226;SDS011;24026;49.446;8.576;2023-03-30T04:19:42;127.88;;;114.45;;
38226;SDS011;24026;49.446;8.576;2023-03-30T04:22:03;128.95;;;115.30;;
38226;SDS011;24026;49.446;8.576;2023-03-30T04:24:25;126.80;;;113.47;;
38226;SDS011;24026;49.446;8.576;2023-03-30T04:26:48;127.93;;;114.43;;
38226;SDS011;24026;49.446;8.576;2023-03-30T04:29:08;127.60;;;114.35;;
38226;SDS011;24026;49.446;8.576;2023-03-30T04:31:29;128.07;;;114.63;;
38226;SDS011;24026;49.446;8.576;2023-03-30T04:33:53;127.97;;;114.50;;
38226;SDS011;24026;49.446;8.576;2023-03-30T04:36:15;127.95;;;114.35;;
38226;SDS011;24026;49.446;8.576;2023-03-30T04:38:39;128.10;;;114.45;;
38226;SDS011;24026;49.446;8.576;2023-03-30T04:41:01;128.40;;;115.00;;
38226;SDS011;24026;49.446;8.576;2023-03-30T04:43:22;127.88;;;114.43;;
38226;SDS011;24026;49.446;8.576;2023-03-30T04:45:46;127.93;;;114.45;;
38226;SDS011;24026;49.446;8.576;2023-03-30T04:48:10;128.75;;;115.15;;
38226;SDS011;24026;49.446;8.576;2023-03-30T04:50:30;127.80;;;114.38;;
38226;SDS011;24026;49.446;8.576;2023-03-30T04:52:51;129.10;;;115.63;;
38226;SDS011;24026;49.446;8.576;2023-03-30T04:55:12;129.40;;;115.75;;
38226;SDS011;24026;49.446;8.576;2023-03-30T04:57:32;128.90;;;115.47;;
38226;SDS011;24026;49.446;8.576;2023-03-30T04:59:53;129.15;;;115.45;;
38226;SDS011;24026;49.446;8.576;2023-03-30T05:02:13;130.68;;;116.90;;
38226;SDS011;24026;49.446;8.576;2023-03-30T05:04:35;130.45;;;116.60;;
38226;SDS011;24026;49.446;8.576;2023-03-30T05:06:56;132.23;;;118.57;;
38226;SDS011;24026;49.446;8.576;2023-03-30T05:09:16;131.00;;;117.20;;
38226;SDS011;24026;49.446;8.576;2023-03-30T05:11:37;129.90;;;115.93;;
38226;SDS011;24026;49.446;8.576;2023-03-30T05:13:58;132.35;;;118.75;;
38226;SDS011;24026;49.446;8.576;2023-03-30T05:16:19;133.07;;;119.10;;
38226;SDS011;24026;49.446;8.576;2023-03-30T05:18:40;134.35;;;120.50;;
38226;SDS011;24026;49.446;8.576;2023-03-30T05:21:01;134.57;;;120.53;;
38226;SDS011;24026;49.446;8.576;2023-03-30T05:23:22;134.85;;;120.63;;
38226;SDS011;24026;49.446;8.576;2023-03-30T05:25:43;137.95;;;122.85;;
38226;SDS011;24026;49.446;8.576;2023-03-30T05:28:05;136.15;;;121.47;;
38226;SDS011;24026;49.446;8.576;2023-03-30T05:30:25;137.75;;;123.03;;
38226;SDS011;24026;49.446;8.576;2023-03-30T05:32:46;137.73;;;123.05;;
38226;SDS011;24026;49.446;8.576;2023-03-30T05:35:06;138.07;;;123.22;;
38226;SDS011;24026;49.446;8.576;2023-03-30T05:37:27;139.40;;;124.53;;
38226;SDS011;24026;49.446;8.576;2023-03-30T05:39:47;140.48;;;125.35;;
38226;SDS011;24026;49.446;8.576;2023-03-30T05:42:09;142.18;;;127.28;;
38226;SDS011;24026;49.446;8.576;2023-03-30T05:44:32;145.95;;;130.85;;
38226;SDS011;24026;49.446;8.576;2023-03-30T05:46:53;149.00;;;133.63;;
38226;SDS011;24026;49.446;8.576;2023-03-30T05:49:13;155.25;;;137.40;;
38226;SDS011;24026;49.446;8.576;2023-03-30T05:51:34;150.05;;;133.48;;
38226;SDS011;24026;49.446;8.576;2023-03-30T05:53:54;151.60;;;134.85;;
38226;SDS011;24026;49.446;8.576;2023-03-30T05:56:15;159.90;;;135.88;;
38226;SDS011;24026;49.446;8.576;2023-03-30T05:58:35;151.55;;;135.10;;
38226;SDS011;24026;49.446;8.576;2023-03-30T06:00:56;151.10;;;134.90;;
38226;SDS011;24026;49.446;8.576;2023-03-30T06:03:17;156.73;;;137.05;;
38226;SDS011;24026;49.446;8.576;2023-03-30T06:05:38;156.18;;;139.57;;
38226;SDS011;24026;49.446;8.576;2023-03-30T06:08:00;172.68;;;145.13;;
38226;SDS011;24026;49.446;8.576;2023-03-30T06:10:23;164.93;;;146.27;;
38226;SDS011;24026;49.446;8.576;2023-03-30T06:12:43;167.25;;;148.05;;
38226;SDS011;24026;49.446;8.576;2023-03-30T06:15:03;186.45;;;166.65;;
38226;SDS011;24026;49.446;8.576;2023-03-30T06:17:24;170.55;;;152.55;;
38226;SDS011;24026;49.446;8.576;2023-03-30T06:19:45;174.25;;;155.65;;
38226;SDS011;24026;49.446;8.576;2023-03-30T06:22:05;163.85;;;146.65;;
38226;SDS011;24026;49.446;8.576;2023-03-30T06:24:25;181.80;;;149.68;;
38226;SDS011;24026;49.446;8.576;2023-03-30T06:26:46;174.13;;;147.63;;
38226;SDS011;24026;49.446;8.576;2023-03-30T06:29:07;184.85;;;148.55;;
38226;SDS011;24026;49.446;8.576;2023-03-30T06:31:27;176.82;;;149.63;;
38226;SDS011;24026;49.446;8.576;2023-03-30T06:33:48;184.90;;;149.88;;
38226;SDS011;24026;49.446;8.576;2023-03-30T06:36:11;179.40;;;149.48;;
38226;SDS011;24026;49.446;8.576;2023-03-30T06:38:32;182.48;;;152.90;;
38226;SDS011;24026;49.446;8.576;2023-03-30T06:40:53;170.88;;;151.65;;
38226;SDS011;24026;49.446;8.576;2023-03-30T06:43:17;187.32;;;155.35;;
38226;SDS011;24026;49.446;8.576;2023-03-30T06:45:50;175.85;;;152.48;;
38226;SDS011;24026;49.446;8.576;2023-03-30T06:48:12;197.13;;;155.35;;
38226;SDS011;24026;49.446;8.576;2023-03-30T06:50:33;202.20;;;167.75;;
38226;SDS011;24026;49.446;8.576;2023-03-30T06:52:55;207.27;;;168.68;;
38226;SDS011;24026;49.446;8.576;2023-03-30T06:55:17;200.32;;;168.25;;
38226;SDS011;24026;49.446;8.576;2023-03-30T06:57:37;194.13;;;162.20;;
38226;SDS011;24026;49.446;8.576;2023-03-30T06:59:58;194.63;;;168.63;;
38226;SDS011;24026;49.446;8.576;2023-03-30T07:02:18;188.77;;;167.63;;
38226;SDS011;24026;49.446;8.576;2023-03-30T07:04:40;195.85;;;168.05;;
38226;SDS011;24026;49.446;8.576;2023-03-30T07:07:01;204.90;;;168.02;;
38226;SDS011;24026;49.446;8.576;2023-03-30T07:09:23;208.30;;;170.43;;
38226;SDS011;24026;49.446;8.576;2023-03-30T07:11:44;197.70;;;166.07;;
38226;SDS011;24026;49.446;8.576;2023-03-30T07:14:06;204.57;;;164.93;;
38226;SDS011;24026;49.446;8.576;2023-03-30T07:16:29;195.98;;;165.02;;
38226;SDS011;24026;49.446;8.576;2023-03-30T07:18:50;185.85;;;160.48;;
38226;SDS011;24026;49.446;8.576;2023-03-30T07:21:11;191.27;;;162.55;;
38226;SDS011;24026;49.446;8.576;2023-03-30T07:23:31;200.80;;;164.98;;
38226;SDS011;24026;49.446;8.576;2023-03-30T07:25:52;227.30;;;193.40;;
38226;SDS011;24026;49.446;8.576;2023-03-30T07:28:12;206.60;;;181.20;;
38226;SDS011;24026;49.446;8.576;2023-03-30T07:30:33;200.80;;;169.15;;
38226;SDS011;24026;49.446;8.576;2023-03-30T07:32:54;196.05;;;170.65;;
38226;SDS011;24026;49.446;8.576;2023-03-30T07:35:15;192.10;;;160.95;;
38226;SDS011;24026;49.446;8.576;2023-03-30T07:37:35;192.68;;;163.57;;
38226;SDS011;24026;49.446;8.576;2023-03-30T07:39:58;175.85;;;153.05;;
38226;SDS011;24026;49.446;8.576;2023-03-30T07:42:20;185.75;;;158.48;;
38226;SDS011;24026;49.446;8.576;2023-03-30T07:44:40;177.23;;;153.50;;
38226;SDS011;24026;49.446;8.576;2023-03-30T07:47:01;176.85;;;152.82;;
38226;SDS011;24026;49.446;8.576;2023-03-30T07:49:25;197.57;;;177.20;;
38226;SDS011;24026;49.446;8.576;2023-03-30T07:51:46;196.70;;;176.40;;
38226;SDS011;24026;49.446;8.576;2023-03-30T07:54:06;190.00;;;163.32;;
38226;SDS011;24026;49.446;8.576;2023-03-30T07:56:29;187.25;;;167.07;;
38226;SDS011;24026;49.446;8.576;2023-03-30T07:58:52;199.00;;;177.38;;
38226;SDS011;24026;49.446;8.576;2023-03-30T08:01:12;188.45;;;168.05;;
38226;SDS011;24026;49.446;8.576;2023-03-30T08:03:33;212.95;;;184.63;;
38226;SDS011;24026;49.446;8.576;2023-03-30T08:05:54;233.50;;;205.65;;
38226;SDS011;24026;49.446;8.576;2023-03-30T08:08:16;202.05;;;174.55;;
38226;SDS011;24026;49.446;8.576;2023-03-30T08:10:36;226.57;;;201.95;;
38226;SDS011;24026;49.446;8.576;2023-03-30T08:12:56;243.48;;;209.75;;
38226;SDS011;24026;49.446;8.576;2023-03-30T08:15:17;255.00;;;221.02;;
38226;SDS011;24026;49.446;8.576;2023-03-30T08:17:37;279.17;;;240.27;;
38226;SDS011;24026;49.446;8.576;2023-03-30T08:19:58;270.20;;;222.52;;
38226;SDS011;24026;49.446;8.576;2023-03-30T08:22:18;241.57;;;209.20;;
38226;SDS011;24026;49.446;8.576;2023-03-30T08:24:38;242.98;;;207.90;;
38226;SDS011;24026;49.446;8.576;2023-03-30T08:26:59;239.57;;;207.10;;
38226;SDS011;24026;49.446;8.576;2023-03-30T08:29:19;246.77;;;204.68;;
38226;SDS011;24026;49.446;8.576;2023-03-30T08:31:40;229.75;;;198.45;;
38226;SDS011;24026;49.446;8.576;2023-03-30T08:34:00;229.40;;;203.65;;
38226;SDS011;24026;49.446;8.576;2023-03-30T08:36:23;225.50;;;197.38;;
38226;SDS011;24026;49.446;8.576;2023-03-30T08:38:44;226.13;;;196.00;;
38226;SDS011;24026;49.446;8.576;2023-03-30T08:46:26;230.77;;;190.13;;
38226;SDS011;24026;49.446;8.576;2023-03-30T08:48:48;231.95;;;188.80;;
38226;SDS011;24026;49.446;8.576;2023-03-30T08:51:23;233.48;;;193.85;;
38226;SDS011;24026;49.446;8.576;2023-03-30T08:53:49;240.00;;;205.23;;
38226;SDS011;24026;49.446;8.576;2023-03-30T08:56:23;245.57;;;213.13;;
38226;SDS011;24026;49.446;8.576;2023-03-30T09:01:30;268.92;;;231.38;;
38226;SDS011;24026;49.446;8.576;2023-03-30T09:11:12;297.17;;;261.55;;
38226;SDS011;24026;49.446;8.576;2023-03-30T09:13:36;300.85;;;260.40;;
38226;SDS011;24026;49.446;8.576;2023-03-30T09:18:37;267.75;;;234.88;;
38226;SDS011;24026;49.446;8.576;2023-03-30T09:21:01;293.27;;;247.00;;
38226;SDS011;24026;49.446;8.576;2023-03-30T09:23:25;278.48;;;239.15;;
38226;SDS011;24026;49.446;8.576;2023-03-30T09:26:09;281.40;;;239.65;;
38226;SDS011;24026;49.446;8.576;2023-03-30T09:31:39;286.23;;;244.27;;
38226;SDS011;24026;49.446;8.576;2023-03-30T09:34:20;272.67;;;230.57;;
38226;SDS011;24026;49.446;8.576;2023-03-30T09:39:17;270.13;;;222.85;;
38226;SDS011;24026;49.446;8.576;2023-03-30T09:41:47;260.13;;;216.05;;
38226;SDS011;24026;49.446;8.576;2023-03-30T09:44:25;257.92;;;219.82;;
38226;SDS011;24026;49.446;8.576;2023-03-30T09:46:51;256.70;;;218.82;;
38226;SDS011;24026;49.446;8.576;2023-03-30T09:49:17;270.67;;;229.75;;
38226;SDS011;24026;49.446;8.576;2023-03-30T09:51:38;267.23;;;232.18;;
38226;SDS011;24026;49.446;8.576;2023-03-30T09:54:12;279.98;;;232.73;;
38226;SDS011;24026;49.446;8.576;2023-03-30T09:58:54;268.27;;;229.02;;
38226;SDS011;24026;49.446;8.576;2023-03-30T10:01:16;274.73;;;220.60;;
38226;SDS011;24026;49.446;8.576;2023-03-30T10:03:42;260.80;;;223.00;;
38226;SDS011;24026;49.446;8.576;2023-03-30T10:11:07;243.82;;;212.75;;
38226;SDS011;24026;49.446;8.576;2023-03-30T10:13:35;245.45;;;218.40;;
38226;SDS011;24026;49.446;8.576;2023-03-30T10:16:21;252.27;;;214.48;;
38226;SDS011;24026;49.446;8.576;2023-03-30T10:18:44;256.85;;;212.38;;
38226;SDS011;24026;49.446;8.576;2023-03-30T10:26:01;249.13;;;210.05;;
38226;SDS011;24026;49.446;8.576;2023-03-30T10:28:26;247.40;;;216.50;;
38226;SDS011;24026;49.446;8.576;2023-03-30T10:31:00;245.25;;;213.45;;
38226;SDS011;24026;49.446;8.576;2023-03-30T10:33:24;240.70;;;213.32;;
38226;SDS011;24026;49.446;8.576;2023-03-30T10:35:47;247.23;;;213.85;;
38226;SDS011;24026;49.446;8.576;2023-03-30T10:38:12;250.10;;;213.38;;
38226;SDS011;24026;49.446;8.576;2023-03-30T10:40:35;241.55;;;213.48;;
38226;SDS011;24026;49.446;8.576;2023-03-30T10:42:59;242.35;;;211.80;;
38226;SDS011;24026;49.446;8.576;2023-03-30T10:48:22;235.15;;;206.50;;
38226;SDS011;24026;49.446;8.576;2023-03-30T10:56:38;223.05;;;195.93;;
38226;SDS011;24026;49.446;8.576;2023-03-30T10:59:06;232.43;;;199.50;;
38226;SDS011;24026;49.446;8.576;2023-03-30T11:07:04;212.77;;;188.15;;
38226;SDS011;24026;49.446;8.576;2023-03-30T11:09:37;219.77;;;195.27;;
38226;SDS011;24026;49.446;8.576;2023-03-30T11:12:02;224.95;;;196.48;;
38226;SDS011;24026;49.446;8.576;2023-03-30T11:14:32;214.93;;;188.00;;
38226;SDS011;24026;49.446;8.576;2023-03-30T11:17:07;208.07;;;185.52;;
38226;SDS011;24026;49.446;8.576;2023-03-30T11:19:44;210.48;;;186.70;;
38226;SDS011;24026;49.446;8.576;2023-03-30T11:22:10;202.40;;;179.63;;
38226;SDS011;24026;49.446;8.576;2023-03-30T11:24:34;204.10;;;173.27;;
38226;SDS011;24026;49.446;8.576;2023-03-30T11:27:42;195.25;;;172.48;;
38226;SDS011;24026;49.446;8.576;2023-03-30T11:40:29;214.93;;;183.48;;
38226;SDS011;24026;49.446;8.576;2023-03-30T11:43:03;210.88;;;186.38;;
38226;SDS011;24026;49.446;8.576;2023-03-30T11:48:14;204.57;;;182.50;;
38226;SDS011;24026;49.446;8.576;2023-03-30T11:59:06;200.73;;;178.00;;
38226;SDS011;24026;49.446;8.576;2023-03-30T12:04:29;195.40;;;174.05;;
38226;SDS011;24026;49.446;8.576;2023-03-30T12:06:59;195.15;;;173.80;;
38226;SDS011;24026;49.446;8.576;2023-03-30T12:12:15;194.70;;;167.82;;
38226;SDS011;24026;49.446;8.576;2023-03-30T12:14:43;196.13;;;169.13;;
38226;SDS011;24026;49.446;8.576;2023-03-30T12:17:29;203.07;;;171.52;;
38226;SDS011;24026;49.446;8.576;2023-03-30T12:25:06;204.20;;;181.70;;
38226;SDS011;24026;49.446;8.576;2023-03-30T12:27:50;195.70;;;174.07;;
38226;SDS011;24026;49.446;8.576;2023-03-30T12:30:27;194.65;;;173.45;;
38226;SDS011;24026;49.446;8.576;2023-03-30T12:33:12;199.68;;;177.40;;
38226;SDS011;24026;49.446;8.576;2023-03-30T12:35:50;225.48;;;190.65;;
38226;SDS011;24026;49.446;8.576;2023-03-30T12:38:18;222.65;;;190.05;;
38226;SDS011;24026;49.446;8.576;2023-03-30T12:40:43;209.38;;;185.32;;
38226;SDS011;24026;49.446;8.576;2023-03-30T12:43:27;218.98;;;191.75;;
38226;SDS011;24026;49.446;8.576;2023-03-30T12:49:03;219.00;;;189.02;;
38226;SDS011;24026;49.446;8.576;2023-03-30T12:57:41;232.52;;;206.80;;
38226;SDS011;24026;49.446;8.576;2023-03-30T13:00:33;234.15;;;207.05;;
38226;SDS011;24026;49.446;8.576;2023-03-30T13:03:03;224.57;;;195.32;;
38226;SDS011;24026;49.446;8.576;2023-03-30T13:05:34;225.13;;;196.32;;
38226;SDS011;24026;49.446;8.576;2023-03-30T13:08:04;222.93;;;199.07;;
38226;SDS011;24026;49.446;8.576;2023-03-30T13:12:47;205.45;;;171.55;;
38226;SDS011;24026;49.446;8.576;2023-03-30T13:18:22;242.75;;;194.45;;
38226;SDS011;24026;49.446;8.576;2023-03-30T13:20:19;236.57;;;184.70;;
38226;SDS011;24026;49.446;8.576;2023-03-30T13:22:57;218.68;;;179.48;;
38226;SDS011;24026;49.446;8.576;2023-03-30T13:27:40;223.98;;;183.77;;
38226;SDS011;24026;49.446;8.576;2023-03-30T13:39:56;220.35;;;179.75;;
38226;SDS011;24026;49.446;8.576;2023-03-30T13:42:48;215.52;;;178.27;;
38226;SDS011;24026;49.446;8.576;2023-03-30T13:48:46;221.85;;;183.82;;
38226;SDS011;24026;49.446;8.576;2023-03-30T13:51:21;216.15;;;179.88;;
38226;SDS011;24026;49.446;8.576;2023-03-30T13:53:48;222.40;;;190.65;;
38226;SDS011;24026;49.446;8.576;2023-03-30T13:56:12;219.45;;;187.40;;
38226;SDS011;24026;49.446;8.576;2023-03-30T13:58:33;227.15;;;188.45;;
38226;SDS011;24026;49.446;8.576;2023-03-30T14:00:56;230.43;;;191.82;;
38226;SDS011;24026;49.446;8.576;2023-03-30T14:04:03;271.05;;;242.57;;
38226;SDS011;24026;49.446;8.576;2023-03-30T14:06:21;260.67;;;232.98;;
38226;SDS011;24026;49.446;8.576;2023-03-30T14:08:46;252.43;;;224.93;;
38226;SDS011;24026;49.446;8.576;2023-03-30T14:11:17;245.23;;;219.25;;
38226;SDS011;24026;49.446;8.576;2023-03-30T14:13:41;245.77;;;219.82;;
38226;SDS011;24026;49.446;8.576;2023-03-30T14:16:04;240.82;;;215.98;;
38226;SDS011;24026;49.446;8.576;2023-03-30T14:18:25;249.88;;;223.98;;
38226;SDS011;24026;49.446;8.576;2023-03-30T14:20:50;240.25;;;215.35;;
38226;SDS011;24026;49.446;8.576;2023-03-30T14:25:51;238.45;;;213.30;;
38226;SDS011;24026;49.446;8.576;2023-03-30T14:28:17;224.73;;;200.73;;
38226;SDS011;24026;49.446;8.576;2023-03-30T14:30:47;227.80;;;203.25;;
38226;SDS011;24026;49.446;8.576;2023-03-30T14:33:15;212.60;;;190.63;;
38226;SDS011;24026;49.446;8.576;2023-03-30T14:35:43;202.02;;;180.52;;
38226;SDS011;24026;49.446;8.576;2023-03-30T14:38:16;214.32;;;192.43;;
38226;SDS011;24026;49.446;8.576;2023-03-30T14:40:41;206.20;;;183.90;;
38226;SDS011;24026;49.446;8.576;2023-03-30T14:43:02;235.57;;;210.63;;
38226;SDS011;24026;49.446;8.576;2023-03-30T14:45:22;179.93;;;160.98;;
38226;SDS011;24026;49.446;8.576;2023-03-30T14:47:44;170.00;;;152.20;;
38226;SDS011;24026;49.446;8.576;2023-03-30T14:50:06;174.60;;;156.10;;
38226;SDS011;24026;49.446;8.576;2023-03-30T14:52:32;182.98;;;163.50;;
38226;SDS011;24026;49.446;8.576;2023-03-30T14:54:57;176.32;;;157.35;;
38226;SDS011;24026;49.446;8.576;2023-03-30T14:57:18;177.88;;;159.52;;
38226;SDS011;24026;49.446;8.576;2023-03-30T14:59:56;181.77;;;162.70;;
38226;SDS011;24026;49.446;8.576;2023-03-30T15:02:23;178.88;;;160.40;;
38226;SDS011;24026;49.446;8.576;2023-03-30T15:04:46;182.70;;;163.73;;
38226;SDS011;24026;49.446;8.576;2023-03-30T15:07:10;183.20;;;164.43;;
38226;SDS011;24026;49.446;8.576;2023-03-30T15:11:58;172.40;;;154.35;;
38226;SDS011;24026;49.446;8.576;2023-03-30T15:14:20;175.10;;;156.43;;
38226;SDS011;24026;49.446;8.576;2023-03-30T15:16:42;172.00;;;154.60;;
38226;SDS011;24026;49.446;8.576;2023-03-30T15:19:05;174.65;;;156.88;;
38226;SDS011;24026;49.446;8.576;2023-03-30T15:22:02;173.30;;;155.63;;
38226;SDS011;24026;49.446;8.576;2023-03-30T15:24:27;170.93;;;153.05;;
38226;SDS011;24026;49.446;8.576;2023-03-30T15:26:52;170.13;;;152.48;;
38226;SDS011;24026;49.446;8.576;2023-03-30T15:29:15;171.30;;;153.82;;
38226;SDS011;24026;49.446;8.576;2023-03-30T15:31:38;171.13;;;153.70;;
38226;SDS011;24026;49.446;8.576;2023-03-30T15:33:58;168.90;;;151.45;;
38226;SDS011;24026;49.446;8.576;2023-03-30T15:36:24;165.48;;;148.30;;
38226;SDS011;24026;49.446;8.576;2023-03-30T15:38:56;169.02;;;151.55;;
38226;SDS011;24026;49.446;8.576;2023-03-30T15:41:20;165.05;;;148.15;;
38226;SDS011;24026;49.446;8.576;2023-03-30T15:43:51;165.68;;;148.60;;
38226;SDS011;24026;49.446;8.576;2023-03-30T15:46:13;166.43;;;149.13;;
38226;SDS011;24026;49.446;8.576;2023-03-30T15:48:45;163.50;;;146.65;;
38226;SDS011;24026;49.446;8.576;2023-03-30T15:53:48;161.75;;;145.35;;
38226;SDS011;24026;49.446;8.576;2023-03-30T15:56:37;160.85;;;144.77;;
38226;SDS011;24026;49.446;8.576;2023-03-30T15:58:58;164.63;;;148.05;;
38226;SDS011;24026;49.446;8.576;2023-03-30T16:01:20;159.30;;;143.38;;
38226;SDS011;24026;49.446;8.576;2023-03-30T16:04:16;160.27;;;144.20;;
38226;SDS011;24026;49.446;8.576;2023-03-30T16:06:31;157.75;;;141.57;;
38226;SDS011;24026;49.446;8.576;2023-03-30T16:08:52;158.82;;;142.63;;
38226;SDS011;24026;49.446;8.576;2023-03-30T16:11:12;159.25;;;143.32;;
38226;SDS011;24026;49.446;8.576;2023-03-30T16:13:39;157.73;;;141.75;;
38226;SDS011;24026;49.446;8.576;2023-03-30T16:16:04;158.32;;;142.52;;
38226;SDS011;24026;49.446;8.576;2023-03-30T16:18:25;156.75;;;141.18;;
38226;SDS011;24026;49.446;8.576;2023-03-30T16:20:45;156.35;;;140.45;;
38226;SDS011;24026;49.446;8.576;2023-03-30T16:23:05;157.93;;;142.13;;
38226;SDS011;24026;49.446;8.576;2023-03-30T16:25:27;155.13;;;139.65;;
38226;SDS011;24026;49.446;8.576;2023-03-30T16:27:47;156.60;;;141.10;;
38226;SDS011;24026;49.446;8.576;2023-03-30T16:32:53;153.02;;;137.68;;